sensor_id;sensor_type;location;lat;lon;timestamp;P1;durP1;ratioP1;P2;durP2;ratioP2
59239;SDS011;45010;53.640;10.578;2023-04-06T00:01:52;1.10;;;0.98;;
59239;SDS011;45010;53.640;10.578;2023-04-06T00:04:52;1.20;;;0.90;;
59239;SDS011;45010;53.640;10.578;2023-04-06T00:07:53;1.55;;;1.00;;
59239;SDS011;45010;53.640;10.578;2023-04-06T00:10:55;1.75;;;1.00;;
59239;SDS011;45010;53.640;10.578;2023-04-06T00:13:56;1.20;;;0.80;;
59239;SDS011;45010;53.640;10.578;2023-04-06T00:16:56;1.52;;;0.85;;
59239;SDS011;45010;53.640;10.578;2023-04-06T00:19:56;1.42;;;0.90;;
59239;SDS011;45010;53.640;10.578;2023-04-06T00:22:57;1.50;;;1.20;;
59239;SDS011;45010;53.640;10.578;2023-04-06T00:25:57;1.60;;;0.93;;
59239;SDS011;45010;53.640;10.578;2023-04-06T00:28:58;2.22;;;0.90;;
59239;SDS011;45010;53.640;10.578;2023-04-06T00:31:58;1.25;;;0.70;;
59239;SDS011;45010;53.640;10.578;2023-04-06T00:34:59;1.80;;;1.00;;
59239;SDS011;45010;53.640;10.578;2023-04-06T00:37:59;0.77;;;0.70;;
59239;SDS011;45010;53.640;10.578;2023-04-06T00:41:00;1.83;;;0.95;;
59239;SDS011;45010;53.640;10.578;2023-04-06T00:44:00;1.42;;;0.90;;
59239;SDS011;45010;53.640;10.578;2023-04-06T00:47:01;1.70;;;1.00;;
59239;SDS011;45010;53.640;10.578;2023-04-06T00:50:02;1.00;;;0.70;;
59239;SDS011;45010;53.640;10.578;2023-04-06T00:53:02;0.98;;;0.80;;
59239;SDS011;45010;53.640;10.578;2023-04-06T00:56:02;1.50;;;1.02;;
59239;SDS011;45010;53.640;10.578;2023-04-06T00:59:03;1.27;;;0.90;;
59239;SDS011;45010;53.640;10.578;2023-04-06T01:02:03;1.13;;;0.90;;
59239;SDS011;45010;53.640;10.578;2023-04-06T01:05:04;1.45;;;1.05;;
59239;SDS011;45010;53.640;10.578;2023-04-06T01:08:05;1.67;;;0.98;;
59239;SDS011;45010;53.640;10.578;2023-04-06T01:11:07;1.60;;;1.17;;
59239;SDS011;45010;53.640;10.578;2023-04-06T01:14:07;1.23;;;1.00;;
59239;SDS011;45010;53.640;10.578;2023-04-06T01:17:07;1.42;;;0.90;;
59239;SDS011;45010;53.640;10.578;2023-04-06T01:20:08;1.98;;;1.08;;
59239;SDS011;45010;53.640;10.578;2023-04-06T01:23:08;1.08;;;0.80;;
59239;SDS011;45010;53.640;10.578;2023-04-06T01:26:09;1.35;;;1.00;;
59239;SDS011;45010;53.640;10.578;2023-04-06T01:29:09;1.60;;;1.13;;
59239;SDS011;45010;53.640;10.578;2023-04-06T01:32:10;1.65;;;1.10;;
59239;SDS011;45010;53.640;10.578;2023-04-06T01:35:10;1.30;;;0.98;;
59239;SDS011;45010;53.640;10.578;2023-04-06T01:38:11;1.23;;;0.80;;
59239;SDS011;45010;53.640;10.578;2023-04-06T01:41:11;1.15;;;0.90;;
59239;SDS011;45010;53.640;10.578;2023-04-06T01:44:11;1.85;;;1.05;;
59239;SDS011;45010;53.640;10.578;2023-04-06T01:47:12;1.10;;;0.88;;
59239;SDS011;45010;53.640;10.578;2023-04-06T01:50:12;1.50;;;0.90;;
59239;SDS011;45010;53.640;10.578;2023-04-06T01:53:12;1.17;;;0.85;;
59239;SDS011;45010;53.640;10.578;2023-04-06T01:56:13;1.42;;;0.90;;
59239;SDS011;45010;53.640;10.578;2023-04-06T01:59:13;0.88;;;0.80;;
59239;SDS011;45010;53.640;10.578;2023-04-06T02:02:14;1.25;;;0.90;;
59239;SDS011;45010;53.640;10.578;2023-04-06T02:05:14;0.93;;;0.75;;
59239;SDS011;45010;53.640;10.578;2023-04-06T02:08:15;1.38;;;0.93;;
59239;SDS011;45010;53.640;10.578;2023-04-06T02:11:15;1.15;;;0.98;;
59239;SDS011;45010;53.640;10.578;2023-04-06T02:14:15;0.90;;;0.80;;
59239;SDS011;45010;53.640;10.578;2023-04-06T02:17:16;0.90;;;0.77;;
59239;SDS011;45010;53.640;10.578;2023-04-06T02:20:16;1.45;;;0.68;;
59239;SDS011;45010;53.640;10.578;2023-04-06T02:23:16;1.50;;;0.93;;
59239;SDS011;45010;53.640;10.578;2023-04-06T02:26:17;0.90;;;0.80;;
59239;SDS011;45010;53.640;10.578;2023-04-06T02:29:17;1.13;;;0.80;;
59239;SDS011;45010;53.640;10.578;2023-04-06T02:32:17;1.00;;;0.90;;
59239;SDS011;45010;53.640;10.578;2023-04-06T02:35:18;0.93;;;0.90;;
59239;SDS011;45010;53.640;10.578;2023-04-06T02:38:18;1.10;;;0.80;;
59239;SDS011;45010;53.640;10.578;2023-04-06T02:41:18;1.15;;;0.80;;
59239;SDS011;45010;53.640;10.578;2023-04-06T02:44:19;1.38;;;0.70;;
59239;SDS011;45010;53.640;10.578;2023-04-06T02:47:19;1.25;;;0.80;;
59239;SDS011;45010;53.640;10.578;2023-04-06T02:50:20;0.80;;;0.70;;
59239;SDS011;45010;53.640;10.578;2023-04-06T02:53:20;1.55;;;0.70;;
59239;SDS011;45010;53.640;10.578;2023-04-06T02:56:20;1.00;;;0.90;;
59239;SDS011;45010;53.640;10.578;2023-04-06T02:59:21;1.42;;;1.10;;
59239;SDS011;45010;53.640;10.578;2023-04-06T03:02:21;1.20;;;0.80;;
59239;SDS011;45010;53.640;10.578;2023-04-06T03:05:22;1.27;;;0.95;;
59239;SDS011;45010;53.640;10.578;2023-04-06T03:08:22;1.10;;;0.77;;
59239;SDS011;45010;53.640;10.578;2023-04-06T03:11:22;1.15;;;0.77;;
59239;SDS011;45010;53.640;10.578;2023-04-06T03:14:23;0.88;;;0.60;;
59239;SDS011;45010;53.640;10.578;2023-04-06T03:17:23;0.98;;;0.77;;
59239;SDS011;45010;53.640;10.578;2023-04-06T03:20:23;1.25;;;0.80;;
59239;SDS011;45010;53.640;10.578;2023-04-06T03:23:24;0.95;;;0.73;;
59239;SDS011;45010;53.640;10.578;2023-04-06T03:26:24;1.40;;;0.85;;
59239;SDS011;45010;53.640;10.578;2023-04-06T03:29:25;1.15;;;0.90;;
59239;SDS011;45010;53.640;10.578;2023-04-06T03:32:25;1.05;;;0.90;;
59239;SDS011;45010;53.640;10.578;2023-04-06T03:35:26;1.60;;;0.93;;
59239;SDS011;45010;53.640;10.578;2023-04-06T03:38:26;1.27;;;0.90;;
59239;SDS011;45010;53.640;10.578;2023-04-06T03:41:26;0.90;;;0.80;;
59239;SDS011;45010;53.640;10.578;2023-04-06T03:44:27;0.80;;;0.80;;
59239;SDS011;45010;53.640;10.578;2023-04-06T03:47:27;1.58;;;1.00;;
59239;SDS011;45010;53.640;10.578;2023-04-06T03:50:27;1.50;;;0.80;;
59239;SDS011;45010;53.640;10.578;2023-04-06T03:53:28;0.63;;;0.63;;
59239;SDS011;45010;53.640;10.578;2023-04-06T03:56:28;1.00;;;0.90;;
59239;SDS011;45010;53.640;10.578;2023-04-06T03:59:28;1.42;;;0.75;;
59239;SDS011;45010;53.640;10.578;2023-04-06T04:02:29;1.10;;;0.75;;
59239;SDS011;45010;53.640;10.578;2023-04-06T04:05:29;1.27;;;0.90;;
59239;SDS011;45010;53.640;10.578;2023-04-06T04:08:30;1.25;;;0.90;;
59239;SDS011;45010;53.640;10.578;2023-04-06T04:11:30;1.17;;;0.80;;
59239;SDS011;45010;53.640;10.578;2023-04-06T04:14:30;0.63;;;0.60;;
59239;SDS011;45010;53.640;10.578;2023-04-06T04:17:30;0.95;;;0.80;;
59239;SDS011;45010;53.640;10.578;2023-04-06T04:20:31;1.63;;;0.90;;
59239;SDS011;45010;53.640;10.578;2023-04-06T04:23:31;1.40;;;0.95;;
59239;SDS011;45010;53.640;10.578;2023-04-06T04:26:32;0.82;;;0.80;;
59239;SDS011;45010;53.640;10.578;2023-04-06T04:29:32;1.20;;;0.98;;
59239;SDS011;45010;53.640;10.578;2023-04-06T04:32:32;1.27;;;0.80;;
59239;SDS011;45010;53.640;10.578;2023-04-06T04:35:33;1.02;;;0.70;;
59239;SDS011;45010;53.640;10.578;2023-04-06T04:38:33;1.10;;;0.80;;
59239;SDS011;45010;53.640;10.578;2023-04-06T04:41:33;1.55;;;0.90;;
59239;SDS011;45010;53.640;10.578;2023-04-06T04:44:34;0.80;;;0.77;;
59239;SDS011;45010;53.640;10.578;2023-04-06T04:47:34;0.73;;;0.73;;
59239;SDS011;45010;53.640;10.578;2023-04-06T04:50:34;0.93;;;0.70;;
59239;SDS011;45010;53.640;10.578;2023-04-06T04:53:35;0.82;;;0.75;;
59239;SDS011;45010;53.640;10.578;2023-04-06T04:56:35;2.05;;;0.93;;
59239;SDS011;45010;53.640;10.578;2023-04-06T04:59:35;1.00;;;0.70;;
59239;SDS011;45010;53.640;10.578;2023-04-06T05:02:36;1.30;;;0.93;;
59239;SDS011;45010;53.640;10.578;2023-04-06T05:05:36;1.75;;;0.95;;
59239;SDS011;45010;53.640;10.578;2023-04-06T05:08:37;1.45;;;0.80;;
59239;SDS011;45010;53.640;10.578;2023-04-06T05:11:37;1.40;;;0.93;;
59239;SDS011;45010;53.640;10.578;2023-04-06T05:14:37;1.17;;;0.93;;
59239;SDS011;45010;53.640;10.578;2023-04-06T05:17:38;1.10;;;1.00;;
59239;SDS011;45010;53.640;10.578;2023-04-06T05:20:38;1.02;;;0.70;;
59239;SDS011;45010;53.640;10.578;2023-04-06T05:23:39;1.15;;;0.80;;
59239;SDS011;45010;53.640;10.578;2023-04-06T05:26:39;1.08;;;0.70;;
59239;SDS011;45010;53.640;10.578;2023-04-06T05:29:40;1.55;;;0.80;;
59239;SDS011;45010;53.640;10.578;2023-04-06T05:32:41;1.15;;;0.90;;
59239;SDS011;45010;53.640;10.578;2023-04-06T05:35:42;1.70;;;0.80;;
59239;SDS011;45010;53.640;10.578;2023-04-06T05:38:42;0.95;;;0.80;;
59239;SDS011;45010;53.640;10.578;2023-04-06T05:41:43;1.15;;;0.75;;
59239;SDS011;45010;53.640;10.578;2023-04-06T05:44:43;1.23;;;1.00;;
59239;SDS011;45010;53.640;10.578;2023-04-06T05:47:44;2.67;;;0.90;;
59239;SDS011;45010;53.640;10.578;2023-04-06T05:50:48;1.83;;;1.58;;
59239;SDS011;45010;53.640;10.578;2023-04-06T05:53:50;3.45;;;2.38;;
59239;SDS011;45010;53.640;10.578;2023-04-06T05:56:50;2.42;;;1.50;;
59239;SDS011;45010;53.640;10.578;2023-04-06T05:59:50;3.35;;;1.58;;
59239;SDS011;45010;53.640;10.578;2023-04-06T06:02:51;3.15;;;1.50;;
59239;SDS011;45010;53.640;10.578;2023-04-06T06:05:51;1.98;;;1.20;;
59239;SDS011;45010;53.640;10.578;2023-04-06T06:08:52;1.75;;;1.48;;
59239;SDS011;45010;53.640;10.578;2023-04-06T06:11:52;2.05;;;1.23;;
59239;SDS011;45010;53.640;10.578;2023-04-06T06:14:53;2.42;;;1.45;;
59239;SDS011;45010;53.640;10.578;2023-04-06T06:17:54;2.65;;;1.25;;
59239;SDS011;45010;53.640;10.578;2023-04-06T06:20:54;3.97;;;1.30;;
59239;SDS011;45010;53.640;10.578;2023-04-06T06:23:54;2.75;;;1.33;;
59239;SDS011;45010;53.640;10.578;2023-04-06T06:26:55;3.30;;;1.35;;
59239;SDS011;45010;53.640;10.578;2023-04-06T06:29:55;5.28;;;1.50;;
59239;SDS011;45010;53.640;10.578;2023-04-06T06:32:55;2.92;;;1.85;;
59239;SDS011;45010;53.640;10.578;2023-04-06T06:35:56;2.08;;;1.73;;
59239;SDS011;45010;53.640;10.578;2023-04-06T06:38:56;5.00;;;1.73;;
59239;SDS011;45010;53.640;10.578;2023-04-06T06:41:57;3.08;;;1.75;;
59239;SDS011;45010;53.640;10.578;2023-04-06T06:45:00;2.78;;;1.63;;
59239;SDS011;45010;53.640;10.578;2023-04-06T06:48:00;4.05;;;1.67;;
59239;SDS011;45010;53.640;10.578;2023-04-06T06:51:01;3.35;;;1.50;;
59239;SDS011;45010;53.640;10.578;2023-04-06T06:54:01;1.75;;;1.60;;
59239;SDS011;45010;53.640;10.578;2023-04-06T06:57:01;3.30;;;1.90;;
59239;SDS011;45010;53.640;10.578;2023-04-06T07:00:02;3.92;;;1.70;;
59239;SDS011;45010;53.640;10.578;2023-04-06T07:03:05;3.10;;;2.00;;
59239;SDS011;45010;53.640;10.578;2023-04-06T07:06:05;4.50;;;1.80;;
59239;SDS011;45010;53.640;10.578;2023-04-06T07:09:06;4.85;;;2.08;;
59239;SDS011;45010;53.640;10.578;2023-04-06T07:12:06;2.67;;;1.55;;
59239;SDS011;45010;53.640;10.578;2023-04-06T07:15:07;4.38;;;1.60;;
59239;SDS011;45010;53.640;10.578;2023-04-06T07:18:07;5.43;;;2.40;;
59239;SDS011;45010;53.640;10.578;2023-04-06T07:21:08;7.07;;;3.30;;
59239;SDS011;45010;53.640;10.578;2023-04-06T07:24:08;5.97;;;2.83;;
59239;SDS011;45010;53.640;10.578;2023-04-06T07:27:08;5.90;;;2.80;;
59239;SDS011;45010;53.640;10.578;2023-04-06T07:30:09;10.57;;;3.25;;
59239;SDS011;45010;53.640;10.578;2023-04-06T07:33:09;8.18;;;2.72;;
59239;SDS011;45010;53.640;10.578;2023-04-06T07:36:10;6.15;;;2.90;;
59239;SDS011;45010;53.640;10.578;2023-04-06T07:39:10;11.65;;;2.85;;
59239;SDS011;45010;53.640;10.578;2023-04-06T07:42:11;7.50;;;2.75;;
59239;SDS011;45010;53.640;10.578;2023-04-06T07:45:11;6.18;;;3.17;;
59239;SDS011;45010;53.640;10.578;2023-04-06T07:48:11;4.85;;;2.78;;
59239;SDS011;45010;53.640;10.578;2023-04-06T07:51:12;6.32;;;2.47;;
59239;SDS011;45010;53.640;10.578;2023-04-06T07:54:14;6.95;;;2.30;;
59239;SDS011;45010;53.640;10.578;2023-04-06T07:57:15;5.03;;;2.60;;
59239;SDS011;45010;53.640;10.578;2023-04-06T08:00:15;5.85;;;2.58;;
59239;SDS011;45010;53.640;10.578;2023-04-06T08:03:16;5.97;;;2.35;;
59239;SDS011;45010;53.640;10.578;2023-04-06T08:06:16;5.53;;;2.30;;
59239;SDS011;45010;53.640;10.578;2023-04-06T08:09:17;4.63;;;2.15;;
59239;SDS011;45010;53.640;10.578;2023-04-06T08:12:17;5.90;;;2.55;;
59239;SDS011;45010;53.640;10.578;2023-04-06T08:15:18;3.78;;;2.10;;
59239;SDS011;45010;53.640;10.578;2023-04-06T08:18:18;4.95;;;3.15;;
59239;SDS011;45010;53.640;10.578;2023-04-06T08:21:18;5.82;;;2.53;;
59239;SDS011;45010;53.640;10.578;2023-04-06T08:24:19;4.43;;;2.15;;
59239;SDS011;45010;53.640;10.578;2023-04-06T08:27:19;10.45;;;3.58;;
59239;SDS011;45010;53.640;10.578;2023-04-06T08:30:19;10.25;;;4.88;;
59239;SDS011;45010;53.640;10.578;2023-04-06T08:33:20;7.13;;;4.35;;
59239;SDS011;45010;53.640;10.578;2023-04-06T08:36:21;7.15;;;4.15;;
59239;SDS011;45010;53.640;10.578;2023-04-06T08:39:22;5.20;;;3.70;;
59239;SDS011;45010;53.640;10.578;2023-04-06T08:42:25;5.75;;;3.38;;
59239;SDS011;45010;53.640;10.578;2023-04-06T08:45:28;3.10;;;2.70;;
59239;SDS011;45010;53.640;10.578;2023-04-06T08:48:29;3.30;;;2.30;;
59239;SDS011;45010;53.640;10.578;2023-04-06T08:51:29;3.63;;;2.33;;
59239;SDS011;45010;53.640;10.578;2023-04-06T08:54:30;8.80;;;3.95;;
59239;SDS011;45010;53.640;10.578;2023-04-06T08:57:31;11.93;;;4.13;;
59239;SDS011;45010;53.640;10.578;2023-04-06T09:00:32;7.55;;;3.58;;
59239;SDS011;45010;53.640;10.578;2023-04-06T09:03:32;6.68;;;3.05;;
59239;SDS011;45010;53.640;10.578;2023-04-06T09:06:38;4.32;;;2.45;;
59239;SDS011;45010;53.640;10.578;2023-04-06T09:09:40;6.25;;;2.25;;
59239;SDS011;45010;53.640;10.578;2023-04-06T09:12:47;7.97;;;2.05;;
59239;SDS011;45010;53.640;10.578;2023-04-06T09:15:57;4.95;;;2.50;;
59239;SDS011;45010;53.640;10.578;2023-04-06T09:19:06;4.22;;;2.10;;
59239;SDS011;45010;53.640;10.578;2023-04-06T09:22:06;9.27;;;2.65;;
59239;SDS011;45010;53.640;10.578;2023-04-06T09:25:09;5.57;;;2.00;;
59239;SDS011;45010;53.640;10.578;2023-04-06T09:28:17;4.28;;;2.17;;
59239;SDS011;45010;53.640;10.578;2023-04-06T09:31:22;2.58;;;1.60;;
59239;SDS011;45010;53.640;10.578;2023-04-06T09:34:22;3.40;;;1.70;;
59239;SDS011;45010;53.640;10.578;2023-04-06T09:37:27;2.60;;;1.70;;
59239;SDS011;45010;53.640;10.578;2023-04-06T09:40:27;3.08;;;1.52;;
59239;SDS011;45010;53.640;10.578;2023-04-06T09:43:29;2.55;;;1.80;;
59239;SDS011;45010;53.640;10.578;2023-04-06T09:46:31;2.05;;;1.58;;
59239;SDS011;45010;53.640;10.578;2023-04-06T09:49:34;5.30;;;1.85;;
59239;SDS011;45010;53.640;10.578;2023-04-06T09:52:40;2.22;;;1.15;;
59239;SDS011;45010;53.640;10.578;2023-04-06T09:55:46;1.90;;;1.50;;
59239;SDS011;45010;53.640;10.578;2023-04-06T09:58:52;6.65;;;1.80;;
59239;SDS011;45010;53.640;10.578;2023-04-06T10:01:58;2.85;;;1.60;;
59239;SDS011;45010;53.640;10.578;2023-04-06T10:05:02;2.80;;;1.73;;
59239;SDS011;45010;53.640;10.578;2023-04-06T10:08:20;2.78;;;1.70;;
59239;SDS011;45010;53.640;10.578;2023-04-06T10:11:24;2.13;;;1.60;;
59239;SDS011;45010;53.640;10.578;2023-04-06T10:14:24;3.88;;;1.60;;
59239;SDS011;45010;53.640;10.578;2023-04-06T10:17:25;1.73;;;1.50;;
59239;SDS011;45010;53.640;10.578;2023-04-06T10:20:28;2.72;;;1.60;;
59239;SDS011;45010;53.640;10.578;2023-04-06T10:26:54;2.50;;;1.25;;
59239;SDS011;45010;53.640;10.578;2023-04-06T10:30:01;2.42;;;1.40;;
59239;SDS011;45010;53.640;10.578;2023-04-06T10:33:16;2.15;;;1.20;;
59239;SDS011;45010;53.640;10.578;2023-04-06T10:36:21;2.58;;;1.40;;
59239;SDS011;45010;53.640;10.578;2023-04-06T10:39:26;1.70;;;1.50;;
59239;SDS011;45010;53.640;10.578;2023-04-06T10:42:36;3.63;;;1.50;;
59239;SDS011;45010;53.640;10.578;2023-04-06T10:45:38;3.90;;;1.48;;
59239;SDS011;45010;53.640;10.578;2023-04-06T10:48:40;2.35;;;1.50;;
59239;SDS011;45010;53.640;10.578;2023-04-06T10:51:50;3.33;;;2.78;;
59239;SDS011;45010;53.640;10.578;2023-04-06T10:54:52;3.72;;;2.83;;
59239;SDS011;45010;53.640;10.578;2023-04-06T10:57:54;5.43;;;2.80;;
59239;SDS011;45010;53.640;10.578;2023-04-06T11:00:55;3.80;;;2.85;;
59239;SDS011;45010;53.640;10.578;2023-04-06T11:03:56;2.90;;;2.60;;
59239;SDS011;45010;53.640;10.578;2023-04-06T11:07:00;3.25;;;2.45;;
59239;SDS011;45010;53.640;10.578;2023-04-06T11:10:00;3.13;;;2.60;;
59239;SDS011;45010;53.640;10.578;2023-04-06T11:13:00;2.90;;;2.33;;
59239;SDS011;45010;53.640;10.578;2023-04-06T11:16:01;3.75;;;2.80;;
59239;SDS011;45010;53.640;10.578;2023-04-06T11:19:03;2.75;;;2.35;;
59239;SDS011;45010;53.640;10.578;2023-04-06T11:22:06;2.97;;;2.33;;
59239;SDS011;45010;53.640;10.578;2023-04-06T11:25:08;3.17;;;2.38;;
59239;SDS011;45010;53.640;10.578;2023-04-06T11:28:08;2.45;;;1.90;;
59239;SDS011;45010;53.640;10.578;2023-04-06T11:31:09;4.97;;;2.33;;
59239;SDS011;45010;53.640;10.578;2023-04-06T11:34:12;3.47;;;2.42;;
59239;SDS011;45010;53.640;10.578;2023-04-06T11:37:13;2.45;;;1.92;;
59239;SDS011;45010;53.640;10.578;2023-04-06T11:40:14;2.70;;;2.10;;
59239;SDS011;45010;53.640;10.578;2023-04-06T11:43:14;3.83;;;1.98;;
59239;SDS011;45010;53.640;10.578;2023-04-06T11:46:17;3.83;;;2.20;;
59239;SDS011;45010;53.640;10.578;2023-04-06T11:49:19;2.22;;;1.65;;
59239;SDS011;45010;53.640;10.578;2023-04-06T11:52:23;4.10;;;1.88;;
59239;SDS011;45010;53.640;10.578;2023-04-06T11:55:25;3.85;;;2.00;;
59239;SDS011;45010;53.640;10.578;2023-04-06T11:58:26;2.05;;;1.70;;
59239;SDS011;45010;53.640;10.578;2023-04-06T12:01:28;4.07;;;1.92;;
59239;SDS011;45010;53.640;10.578;2023-04-06T12:04:28;3.80;;;1.70;;
59239;SDS011;45010;53.640;10.578;2023-04-06T12:07:29;3.83;;;1.80;;
59239;SDS011;45010;53.640;10.578;2023-04-06T12:10:30;4.68;;;2.25;;
59239;SDS011;45010;53.640;10.578;2023-04-06T12:13:30;3.67;;;2.10;;
59239;SDS011;45010;53.640;10.578;2023-04-06T12:16:31;2.17;;;1.67;;
59239;SDS011;45010;53.640;10.578;2023-04-06T12:19:31;3.00;;;1.60;;
59239;SDS011;45010;53.640;10.578;2023-04-06T12:22:31;3.30;;;1.70;;
59239;SDS011;45010;53.640;10.578;2023-04-06T12:25:32;4.43;;;2.05;;
59239;SDS011;45010;53.640;10.578;2023-04-06T12:28:32;1.88;;;1.60;;
59239;SDS011;45010;53.640;10.578;2023-04-06T12:31:34;3.10;;;2.13;;
59239;SDS011;45010;53.640;10.578;2023-04-06T12:34:35;1.80;;;1.45;;
59239;SDS011;45010;53.640;10.578;2023-04-06T12:37:35;1.60;;;1.35;;
59239;SDS011;45010;53.640;10.578;2023-04-06T12:40:37;3.28;;;1.40;;
59239;SDS011;45010;53.640;10.578;2023-04-06T12:43:39;1.60;;;1.20;;
59239;SDS011;45010;53.640;10.578;2023-04-06T12:46:39;2.05;;;1.77;;
59239;SDS011;45010;53.640;10.578;2023-04-06T12:49:40;3.58;;;1.73;;
59239;SDS011;45010;53.640;10.578;2023-04-06T12:52:41;2.33;;;1.80;;
59239;SDS011;45010;53.640;10.578;2023-04-06T12:55:41;5.00;;;1.80;;
59239;SDS011;45010;53.640;10.578;2023-04-06T12:58:42;2.42;;;1.42;;
59239;SDS011;45010;53.640;10.578;2023-04-06T13:01:42;3.90;;;1.77;;
59239;SDS011;45010;53.640;10.578;2023-04-06T13:04:44;3.28;;;1.77;;
59239;SDS011;45010;53.640;10.578;2023-04-06T13:07:44;5.03;;;1.77;;
59239;SDS011;45010;53.640;10.578;2023-04-06T13:10:49;2.55;;;1.40;;
59239;SDS011;45010;53.640;10.578;2023-04-06T13:13:52;1.33;;;0.95;;
59239;SDS011;45010;53.640;10.578;2023-04-06T13:16:52;2.97;;;1.65;;
59239;SDS011;45010;53.640;10.578;2023-04-06T13:19:52;1.55;;;1.23;;
59239;SDS011;45010;53.640;10.578;2023-04-06T13:22:53;3.13;;;2.05;;
59239;SDS011;45010;53.640;10.578;2023-04-06T13:26:03;3.40;;;1.30;;
59239;SDS011;45010;53.640;10.578;2023-04-06T13:29:05;5.18;;;1.83;;
59239;SDS011;45010;53.640;10.578;2023-04-06T13:32:06;3.95;;;1.42;;
59239;SDS011;45010;53.640;10.578;2023-04-06T13:35:06;3.42;;;1.80;;
59239;SDS011;45010;53.640;10.578;2023-04-06T13:38:07;4.85;;;1.40;;
59239;SDS011;45010;53.640;10.578;2023-04-06T13:41:07;1.55;;;1.20;;
59239;SDS011;45010;53.640;10.578;2023-04-06T13:44:08;3.58;;;1.48;;
59239;SDS011;45010;53.640;10.578;2023-04-06T13:47:08;5.13;;;1.48;;
59239;SDS011;45010;53.640;10.578;2023-04-06T13:50:08;3.13;;;1.77;;
59239;SDS011;45010;53.640;10.578;2023-04-06T13:53:09;2.42;;;1.17;;
59239;SDS011;45010;53.640;10.578;2023-04-06T13:56:09;2.95;;;1.40;;
59239;SDS011;45010;53.640;10.578;2023-04-06T13:59:10;2.15;;;1.15;;
59239;SDS011;45010;53.640;10.578;2023-04-06T14:02:10;3.50;;;1.35;;
59239;SDS011;45010;53.640;10.578;2023-04-06T14:05:11;3.15;;;1.60;;
59239;SDS011;45010;53.640;10.578;2023-04-06T14:08:11;3.33;;;1.65;;
59239;SDS011;45010;53.640;10.578;2023-04-06T14:11:11;2.17;;;1.35;;
59239;SDS011;45010;53.640;10.578;2023-04-06T14:14:12;3.13;;;2.00;;
59239;SDS011;45010;53.640;10.578;2023-04-06T14:17:13;4.30;;;1.67;;
59239;SDS011;45010;53.640;10.578;2023-04-06T14:20:13;4.13;;;1.63;;
59239;SDS011;45010;53.640;10.578;2023-04-06T14:23:15;3.97;;;1.60;;
59239;SDS011;45010;53.640;10.578;2023-04-06T14:26:15;2.88;;;1.73;;
59239;SDS011;45010;53.640;10.578;2023-04-06T14:29:16;2.22;;;1.60;;
59239;SDS011;45010;53.640;10.578;2023-04-06T14:32:17;3.70;;;1.60;;
59239;SDS011;45010;53.640;10.578;2023-04-06T14:35:18;2.35;;;1.75;;
59239;SDS011;45010;53.640;10.578;2023-04-06T14:38:18;1.80;;;1.40;;
59239;SDS011;45010;53.640;10.578;2023-04-06T14:41:19;1.67;;;1.58;;
59239;SDS011;45010;53.640;10.578;2023-04-06T14:44:21;2.25;;;1.60;;
59239;SDS011;45010;53.640;10.578;2023-04-06T14:47:21;2.50;;;1.48;;
59239;SDS011;45010;53.640;10.578;2023-04-06T14:50:21;4.25;;;1.77;;
59239;SDS011;45010;53.640;10.578;2023-04-06T14:53:22;1.38;;;1.27;;
59239;SDS011;45010;53.640;10.578;2023-04-06T14:56:23;2.88;;;1.42;;
59239;SDS011;45010;53.640;10.578;2023-04-06T14:59:24;3.25;;;1.30;;
59239;SDS011;45010;53.640;10.578;2023-04-06T15:02:24;3.85;;;1.50;;
59239;SDS011;45010;53.640;10.578;2023-04-06T15:05:25;1.70;;;1.55;;
59239;SDS011;45010;53.640;10.578;2023-04-06T15:08:25;2.97;;;1.35;;
59239;SDS011;45010;53.640;10.578;2023-04-06T15:11:25;1.10;;;0.88;;
59239;SDS011;45010;53.640;10.578;2023-04-06T15:14:26;1.77;;;1.05;;
59239;SDS011;45010;53.640;10.578;2023-04-06T15:17:26;1.23;;;1.02;;
59239;SDS011;45010;53.640;10.578;2023-04-06T15:20:27;1.83;;;1.00;;
59239;SDS011;45010;53.640;10.578;2023-04-06T15:23:27;2.50;;;1.20;;
59239;SDS011;45010;53.640;10.578;2023-04-06T15:26:31;2.47;;;1.10;;
59239;SDS011;45010;53.640;10.578;2023-04-06T15:29:31;1.20;;;1.10;;
59239;SDS011;45010;53.640;10.578;2023-04-06T15:32:32;3.40;;;1.70;;
59239;SDS011;45010;53.640;10.578;2023-04-06T15:35:32;1.30;;;1.10;;
59239;SDS011;45010;53.640;10.578;2023-04-06T15:38:34;1.25;;;1.02;;
59239;SDS011;45010;53.640;10.578;2023-04-06T15:41:34;2.10;;;1.13;;
59239;SDS011;45010;53.640;10.578;2023-04-06T15:44:36;1.10;;;1.00;;
59239;SDS011;45010;53.640;10.578;2023-04-06T15:47:37;1.27;;;0.98;;
59239;SDS011;45010;53.640;10.578;2023-04-06T15:50:38;1.58;;;1.20;;
59239;SDS011;45010;53.640;10.578;2023-04-06T15:53:38;1.58;;;0.98;;
59239;SDS011;45010;53.640;10.578;2023-04-06T15:56:38;1.60;;;1.20;;
59239;SDS011;45010;53.640;10.578;2023-04-06T15:59:39;1.10;;;0.93;;
59239;SDS011;45010;53.640;10.578;2023-04-06T16:02:39;1.88;;;1.30;;
59239;SDS011;45010;53.640;10.578;2023-04-06T16:05:40;2.67;;;1.30;;
59239;SDS011;45010;53.640;10.578;2023-04-06T16:08:40;2.40;;;1.52;;
59239;SDS011;45010;53.640;10.578;2023-04-06T16:11:40;1.77;;;0.95;;
59239;SDS011;45010;53.640;10.578;2023-04-06T16:14:41;4.80;;;1.17;;
59239;SDS011;45010;53.640;10.578;2023-04-06T16:17:41;4.22;;;1.05;;
59239;SDS011;45010;53.640;10.578;2023-04-06T16:20:42;1.80;;;1.10;;
59239;SDS011;45010;53.640;10.578;2023-04-06T16:23:45;2.38;;;1.00;;
59239;SDS011;45010;53.640;10.578;2023-04-06T16:26:46;2.83;;;1.10;;
59239;SDS011;45010;53.640;10.578;2023-04-06T16:29:47;3.80;;;1.05;;
59239;SDS011;45010;53.640;10.578;2023-04-06T16:32:47;3.53;;;1.42;;
59239;SDS011;45010;53.640;10.578;2023-04-06T16:35:50;2.15;;;0.95;;
59239;SDS011;45010;53.640;10.578;2023-04-06T16:38:50;4.55;;;1.83;;
59239;SDS011;45010;53.640;10.578;2023-04-06T16:41:51;3.50;;;1.23;;
59239;SDS011;45010;53.640;10.578;2023-04-06T16:44:51;1.38;;;0.93;;
59239;SDS011;45010;53.640;10.578;2023-04-06T16:47:52;3.72;;;1.23;;
59239;SDS011;45010;53.640;10.578;2023-04-06T16:50:52;2.58;;;1.00;;
59239;SDS011;45010;53.640;10.578;2023-04-06T16:53:52;2.47;;;1.25;;
59239;SDS011;45010;53.640;10.578;2023-04-06T16:56:53;2.72;;;1.02;;
59239;SDS011;45010;53.640;10.578;2023-04-06T16:59:54;2.75;;;0.80;;
59239;SDS011;45010;53.640;10.578;2023-04-06T17:02:55;4.35;;;1.20;;
59239;SDS011;45010;53.640;10.578;2023-04-06T17:05:55;3.17;;;1.35;;
59239;SDS011;45010;53.640;10.578;2023-04-06T17:08:56;3.75;;;1.00;;
59239;SDS011;45010;53.640;10.578;2023-04-06T17:11:58;1.40;;;0.90;;
59239;SDS011;45010;53.640;10.578;2023-04-06T17:14:59;2.67;;;1.10;;
59239;SDS011;45010;53.640;10.578;2023-04-06T17:17:59;3.42;;;1.08;;
59239;SDS011;45010;53.640;10.578;2023-04-06T17:21:03;4.78;;;1.20;;
59239;SDS011;45010;53.640;10.578;2023-04-06T17:24:05;1.70;;;0.90;;
59239;SDS011;45010;53.640;10.578;2023-04-06T17:27:05;2.70;;;0.93;;
59239;SDS011;45010;53.640;10.578;2023-04-06T17:30:07;1.88;;;1.10;;
59239;SDS011;45010;53.640;10.578;2023-04-06T17:33:09;1.40;;;1.02;;
59239;SDS011;45010;53.640;10.578;2023-04-06T17:36:09;2.55;;;1.02;;
59239;SDS011;45010;53.640;10.578;2023-04-06T17:39:11;1.35;;;1.13;;
59239;SDS011;45010;53.640;10.578;2023-04-06T17:42:11;2.10;;;1.10;;
59239;SDS011;45010;53.640;10.578;2023-04-06T17:45:12;2.72;;;1.02;;
59239;SDS011;45010;53.640;10.578;2023-04-06T17:48:12;1.77;;;1.15;;
59239;SDS011;45010;53.640;10.578;2023-04-06T17:51:13;4.20;;;1.02;;
59239;SDS011;45010;53.640;10.578;2023-04-06T17:54:14;5.85;;;1.00;;
59239;SDS011;45010;53.640;10.578;2023-04-06T17:57:15;3.65;;;1.02;;